Terminal Aerodrome Forecast
Issued by NWS Cleveland, OH

Home | Current Version | Previous Version | Graphics & Text | Print | Product List | Glossary On
Versions: 1 2 3 4 5 6 7 8 9 10 11 12 13 14 15 16 17 18 19 20
000
FTUS41 KCLE 221746
TAFYNG
TAF
KYNG 221746Z 2218/2318 22010KT 6SM BR VCSH BKN005
      TEMPO 2218/2219 4SM -SHRA BR BKN015
     FM222000 20005KT P6SM BKN015 OVC060
     FM230600 VRB04KT 4SM BR OVC008
     FM231100 VRB03KT 2SM BR OVC005
     FM231300 23004KT 6SM BR OVC010=

USA.gov is the U.S. government's official web portal to all federal, state and local government web resources and services.